首页
METAR-TAF:

METAR-TAF

机场 :

布拉格瓦茨拉夫·哈維爾國際機場

布拉格, 捷克共和国

纬度: 50-06N, 经度: 014-15E, 海拔: 365米

当前天气观测

该预报发布于36分钟前的13:00 UTC
风速7节,风向东转东北
温度 5°C
湿度 60%
气压 1032 hPa
能见度10公里或以上
1500米以下无云,无积雨云

METAR: LKPR 171300Z 07007KT CAVOK 05/M02 Q1032 NOSIG

时间: 14:36 (13:36 UTC)

预报

该预报发布于2小时和36分钟前的11:00 UTC
预报有效从17日的 12点(UTC)到 18日的 18点(UTC)
风速6节,风向东转东北
能见度10公里或以上
1500米以下无云,无积雨云
短暂存在
从 18日的 06点(UTC)到 18日的 08点(UTC)
能見度: 5000
轻雾
成为
从 18日的 15点(UTC)到 18日的 18点(UTC)
散云层高于3300英尺

TAF: LKPR 171100Z 1712/1818 06006KT CAVOK TEMPO 1806/1808 5000 BR BECMG 1815/1818 SCT033

超过4000个机场的气象观测和天气预报(METAR&TAF报告)。

可查询的气象台以黄色和红色小点在地图上表示。

将鼠标移到小点上方,可查看气象台名称。

然后点击查看天气观测和预报。

如需切换地图:点击带黑十字的绿色按钮放大地图;点击带横线的绿色按钮缩小地图;或者点击绿色箭头查看邻近地区的地图。


METAR-TAF: